sensor_id;sensor_type;location;lat;lon;timestamp;P1;durP1;ratioP1;P2;durP2;ratioP2
7017;SDS011;3549;42.162;24.726;2023-04-24T00:02:01;21.67;;;13.73;;
7017;SDS011;3549;42.162;24.726;2023-04-24T00:04:26;19.97;;;13.03;;
7017;SDS011;3549;42.162;24.726;2023-04-24T00:06:52;19.30;;;13.53;;
7017;SDS011;3549;42.162;24.726;2023-04-24T00:09:21;23.00;;;13.37;;
7017;SDS011;3549;42.162;24.726;2023-04-24T00:11:47;20.77;;;12.90;;
7017;SDS011;3549;42.162;24.726;2023-04-24T00:14:13;19.87;;;13.00;;
7017;SDS011;3549;42.162;24.726;2023-04-24T00:16:38;20.70;;;13.60;;
7017;SDS011;3549;42.162;24.726;2023-04-24T00:19:04;22.17;;;14.47;;
7017;SDS011;3549;42.162;24.726;2023-04-24T00:21:31;24.33;;;13.87;;
7017;SDS011;3549;42.162;24.726;2023-04-24T00:23:57;24.10;;;14.27;;
7017;SDS011;3549;42.162;24.726;2023-04-24T00:26:23;21.10;;;12.60;;
7017;SDS011;3549;42.162;24.726;2023-04-24T00:28:48;19.03;;;12.97;;
7017;SDS011;3549;42.162;24.726;2023-04-24T00:31:14;20.63;;;13.00;;
7017;SDS011;3549;42.162;24.726;2023-04-24T00:33:39;22.23;;;13.33;;
7017;SDS011;3549;42.162;24.726;2023-04-24T00:36:05;21.67;;;13.80;;
7017;SDS011;3549;42.162;24.726;2023-04-24T00:38:31;21.57;;;13.33;;
7017;SDS011;3549;42.162;24.726;2023-04-24T00:40:57;21.50;;;13.07;;
7017;SDS011;3549;42.162;24.726;2023-04-24T00:43:22;23.83;;;13.87;;
7017;SDS011;3549;42.162;24.726;2023-04-24T00:45:48;22.43;;;14.37;;
7017;SDS011;3549;42.162;24.726;2023-04-24T00:48:13;23.07;;;13.50;;
7017;SDS011;3549;42.162;24.726;2023-04-24T00:50:39;20.60;;;13.30;;
7017;SDS011;3549;42.162;24.726;2023-04-24T00:53:05;22.37;;;13.60;;
7017;SDS011;3549;42.162;24.726;2023-04-24T00:55:31;23.47;;;14.00;;
7017;SDS011;3549;42.162;24.726;2023-04-24T00:57:57;21.97;;;13.47;;
7017;SDS011;3549;42.162;24.726;2023-04-24T01:00:22;21.27;;;13.27;;
7017;SDS011;3549;42.162;24.726;2023-04-24T01:02:49;23.03;;;13.60;;
7017;SDS011;3549;42.162;24.726;2023-04-24T01:05:16;22.40;;;13.73;;
7017;SDS011;3549;42.162;24.726;2023-04-24T01:07:43;21.20;;;13.00;;
7017;SDS011;3549;42.162;24.726;2023-04-24T01:10:11;22.67;;;13.27;;
7017;SDS011;3549;42.162;24.726;2023-04-24T01:12:38;20.80;;;12.83;;
7017;SDS011;3549;42.162;24.726;2023-04-24T01:15:05;21.10;;;12.67;;
7017;SDS011;3549;42.162;24.726;2023-04-24T01:17:32;21.87;;;13.27;;
7017;SDS011;3549;42.162;24.726;2023-04-24T01:19:58;22.03;;;12.53;;
7017;SDS011;3549;42.162;24.726;2023-04-24T01:22:25;19.70;;;12.60;;
7017;SDS011;3549;42.162;24.726;2023-04-24T01:24:51;23.40;;;13.13;;
7017;SDS011;3549;42.162;24.726;2023-04-24T01:27:17;20.20;;;12.87;;
7017;SDS011;3549;42.162;24.726;2023-04-24T01:29:42;20.73;;;12.43;;
7017;SDS011;3549;42.162;24.726;2023-04-24T01:32:08;21.63;;;12.93;;
7017;SDS011;3549;42.162;24.726;2023-04-24T01:34:34;20.40;;;12.90;;
7017;SDS011;3549;42.162;24.726;2023-04-24T01:36:59;20.40;;;12.87;;
7017;SDS011;3549;42.162;24.726;2023-04-24T01:39:25;26.07;;;13.60;;
7017;SDS011;3549;42.162;24.726;2023-04-24T01:41:53;22.87;;;14.17;;
7017;SDS011;3549;42.162;24.726;2023-04-24T01:44:19;23.43;;;13.17;;
7017;SDS011;3549;42.162;24.726;2023-04-24T01:46:44;24.27;;;14.20;;
7017;SDS011;3549;42.162;24.726;2023-04-24T01:49:10;23.40;;;13.43;;
7017;SDS011;3549;42.162;24.726;2023-04-24T01:51:36;24.33;;;14.27;;
7017;SDS011;3549;42.162;24.726;2023-04-24T01:54:01;26.70;;;15.10;;
7017;SDS011;3549;42.162;24.726;2023-04-24T01:56:28;25.10;;;13.83;;
7017;SDS011;3549;42.162;24.726;2023-04-24T01:58:55;24.13;;;14.27;;
7017;SDS011;3549;42.162;24.726;2023-04-24T02:01:23;24.87;;;14.23;;
7017;SDS011;3549;42.162;24.726;2023-04-24T02:03:49;26.60;;;14.50;;
7017;SDS011;3549;42.162;24.726;2023-04-24T02:06:14;24.37;;;14.83;;
7017;SDS011;3549;42.162;24.726;2023-04-24T02:08:40;23.03;;;14.30;;
7017;SDS011;3549;42.162;24.726;2023-04-24T02:11:05;23.57;;;14.43;;
7017;SDS011;3549;42.162;24.726;2023-04-24T02:13:31;24.03;;;13.90;;
7017;SDS011;3549;42.162;24.726;2023-04-24T02:15:57;24.80;;;13.83;;
7017;SDS011;3549;42.162;24.726;2023-04-24T02:18:23;22.63;;;13.50;;
7017;SDS011;3549;42.162;24.726;2023-04-24T02:20:49;24.27;;;14.53;;
7017;SDS011;3549;42.162;24.726;2023-04-24T02:23:15;19.63;;;13.70;;
7017;SDS011;3549;42.162;24.726;2023-04-24T02:25:40;21.93;;;13.47;;
7017;SDS011;3549;42.162;24.726;2023-04-24T02:28:05;19.63;;;12.80;;
7017;SDS011;3549;42.162;24.726;2023-04-24T02:30:31;26.20;;;13.17;;
7017;SDS011;3549;42.162;24.726;2023-04-24T02:32:56;22.90;;;13.50;;
7017;SDS011;3549;42.162;24.726;2023-04-24T02:35:22;23.33;;;13.60;;
7017;SDS011;3549;42.162;24.726;2023-04-24T02:37:47;22.67;;;14.17;;
7017;SDS011;3549;42.162;24.726;2023-04-24T02:40:13;21.83;;;13.53;;
7017;SDS011;3549;42.162;24.726;2023-04-24T02:42:38;27.47;;;14.13;;
7017;SDS011;3549;42.162;24.726;2023-04-24T02:45:04;24.90;;;13.13;;
7017;SDS011;3549;42.162;24.726;2023-04-24T02:47:30;24.97;;;13.83;;
7017;SDS011;3549;42.162;24.726;2023-04-24T02:49:55;21.30;;;13.90;;
7017;SDS011;3549;42.162;24.726;2023-04-24T02:52:21;24.27;;;13.33;;
7017;SDS011;3549;42.162;24.726;2023-04-24T02:54:46;20.63;;;12.63;;
7017;SDS011;3549;42.162;24.726;2023-04-24T02:57:11;22.50;;;13.60;;
7017;SDS011;3549;42.162;24.726;2023-04-24T02:59:37;21.20;;;13.07;;
7017;SDS011;3549;42.162;24.726;2023-04-24T03:02:02;24.87;;;14.17;;
7017;SDS011;3549;42.162;24.726;2023-04-24T03:04:28;24.80;;;13.20;;
7017;SDS011;3549;42.162;24.726;2023-04-24T03:06:53;23.07;;;13.77;;
7017;SDS011;3549;42.162;24.726;2023-04-24T03:09:20;22.83;;;14.60;;
7017;SDS011;3549;42.162;24.726;2023-04-24T03:11:46;26.37;;;14.00;;
7017;SDS011;3549;42.162;24.726;2023-04-24T03:14:11;23.80;;;14.57;;
7017;SDS011;3549;42.162;24.726;2023-04-24T03:16:37;25.80;;;14.57;;
7017;SDS011;3549;42.162;24.726;2023-04-24T03:19:02;27.20;;;14.53;;
7017;SDS011;3549;42.162;24.726;2023-04-24T03:21:28;28.50;;;14.80;;
7017;SDS011;3549;42.162;24.726;2023-04-24T03:23:53;25.33;;;15.30;;
7017;SDS011;3549;42.162;24.726;2023-04-24T03:26:18;27.03;;;15.43;;
7017;SDS011;3549;42.162;24.726;2023-04-24T03:28:44;31.40;;;15.50;;
7017;SDS011;3549;42.162;24.726;2023-04-24T03:31:10;28.43;;;16.97;;
7017;SDS011;3549;42.162;24.726;2023-04-24T03:33:35;31.00;;;17.93;;
7017;SDS011;3549;42.162;24.726;2023-04-24T03:36:01;32.93;;;17.23;;
7017;SDS011;3549;42.162;24.726;2023-04-24T03:38:26;31.47;;;18.87;;
7017;SDS011;3549;42.162;24.726;2023-04-24T03:40:52;30.60;;;18.03;;
7017;SDS011;3549;42.162;24.726;2023-04-24T03:43:17;30.10;;;17.63;;
7017;SDS011;3549;42.162;24.726;2023-04-24T03:45:43;28.63;;;17.93;;
7017;SDS011;3549;42.162;24.726;2023-04-24T03:48:08;31.57;;;17.50;;
7017;SDS011;3549;42.162;24.726;2023-04-24T03:50:34;32.03;;;18.63;;
7017;SDS011;3549;42.162;24.726;2023-04-24T03:52:59;33.60;;;20.03;;
7017;SDS011;3549;42.162;24.726;2023-04-24T03:55:25;38.77;;;20.40;;
7017;SDS011;3549;42.162;24.726;2023-04-24T03:57:50;36.10;;;20.43;;
7017;SDS011;3549;42.162;24.726;2023-04-24T04:00:16;36.97;;;21.53;;
7017;SDS011;3549;42.162;24.726;2023-04-24T04:02:41;38.03;;;22.03;;
7017;SDS011;3549;42.162;24.726;2023-04-24T04:05:06;36.80;;;21.17;;
7017;SDS011;3549;42.162;24.726;2023-04-24T04:07:33;39.27;;;22.57;;
7017;SDS011;3549;42.162;24.726;2023-04-24T04:09:58;51.60;;;27.70;;
7017;SDS011;3549;42.162;24.726;2023-04-24T04:12:24;56.00;;;27.73;;
7017;SDS011;3549;42.162;24.726;2023-04-24T04:14:49;46.33;;;24.53;;
7017;SDS011;3549;42.162;24.726;2023-04-24T04:17:15;49.33;;;26.10;;
7017;SDS011;3549;42.162;24.726;2023-04-24T04:19:40;46.60;;;23.00;;
7017;SDS011;3549;42.162;24.726;2023-04-24T04:22:06;38.67;;;20.13;;
7017;SDS011;3549;42.162;24.726;2023-04-24T04:24:33;30.67;;;18.93;;
7017;SDS011;3549;42.162;24.726;2023-04-24T04:26:58;37.10;;;21.43;;
7017;SDS011;3549;42.162;24.726;2023-04-24T04:29:25;38.73;;;22.17;;
7017;SDS011;3549;42.162;24.726;2023-04-24T04:31:51;39.13;;;20.70;;
7017;SDS011;3549;42.162;24.726;2023-04-24T04:34:17;33.97;;;19.97;;
7017;SDS011;3549;42.162;24.726;2023-04-24T04:36:43;38.30;;;21.50;;
7017;SDS011;3549;42.162;24.726;2023-04-24T04:39:09;56.60;;;30.53;;
7017;SDS011;3549;42.162;24.726;2023-04-24T04:41:34;44.53;;;23.93;;
7017;SDS011;3549;42.162;24.726;2023-04-24T04:44:00;40.50;;;23.00;;
7017;SDS011;3549;42.162;24.726;2023-04-24T04:46:26;37.23;;;22.07;;
7017;SDS011;3549;42.162;24.726;2023-04-24T04:48:52;53.20;;;28.03;;
7017;SDS011;3549;42.162;24.726;2023-04-24T04:51:19;31.37;;;19.70;;
7017;SDS011;3549;42.162;24.726;2023-04-24T04:53:44;34.13;;;19.10;;
7017;SDS011;3549;42.162;24.726;2023-04-24T04:56:10;29.67;;;16.53;;
7017;SDS011;3549;42.162;24.726;2023-04-24T04:58:35;24.77;;;14.30;;
7017;SDS011;3549;42.162;24.726;2023-04-24T05:01:01;20.03;;;13.70;;
7017;SDS011;3549;42.162;24.726;2023-04-24T05:03:27;23.77;;;13.43;;
7017;SDS011;3549;42.162;24.726;2023-04-24T05:05:52;23.83;;;14.10;;
7017;SDS011;3549;42.162;24.726;2023-04-24T05:08:18;21.27;;;13.10;;
7017;SDS011;3549;42.162;24.726;2023-04-24T05:10:43;21.80;;;12.17;;
7017;SDS011;3549;42.162;24.726;2023-04-24T05:13:08;24.93;;;14.17;;
7017;SDS011;3549;42.162;24.726;2023-04-24T05:15:34;22.93;;;13.87;;
7017;SDS011;3549;42.162;24.726;2023-04-24T05:18:00;25.07;;;14.73;;
7017;SDS011;3549;42.162;24.726;2023-04-24T05:20:25;29.77;;;17.33;;
7017;SDS011;3549;42.162;24.726;2023-04-24T05:22:51;29.47;;;17.67;;
7017;SDS011;3549;42.162;24.726;2023-04-24T05:25:16;26.10;;;15.97;;
7017;SDS011;3549;42.162;24.726;2023-04-24T05:27:41;26.27;;;17.97;;
7017;SDS011;3549;42.162;24.726;2023-04-24T05:30:07;31.53;;;19.67;;
7017;SDS011;3549;42.162;24.726;2023-04-24T05:32:34;31.17;;;19.23;;
7017;SDS011;3549;42.162;24.726;2023-04-24T05:34:59;30.20;;;18.30;;
7017;SDS011;3549;42.162;24.726;2023-04-24T05:37:25;31.33;;;17.67;;
7017;SDS011;3549;42.162;24.726;2023-04-24T05:39:50;29.47;;;15.57;;
7017;SDS011;3549;42.162;24.726;2023-04-24T05:42:16;25.20;;;14.63;;
7017;SDS011;3549;42.162;24.726;2023-04-24T05:44:41;30.03;;;14.73;;
7017;SDS011;3549;42.162;24.726;2023-04-24T05:47:06;24.80;;;13.83;;
7017;SDS011;3549;42.162;24.726;2023-04-24T05:49:32;23.63;;;12.70;;
7017;SDS011;3549;42.162;24.726;2023-04-24T05:51:57;20.53;;;12.40;;
7017;SDS011;3549;42.162;24.726;2023-04-24T05:54:23;26.40;;;13.63;;
7017;SDS011;3549;42.162;24.726;2023-04-24T05:56:48;24.80;;;14.17;;
7017;SDS011;3549;42.162;24.726;2023-04-24T05:59:15;21.87;;;12.10;;
7017;SDS011;3549;42.162;24.726;2023-04-24T06:01:40;21.73;;;11.97;;
7017;SDS011;3549;42.162;24.726;2023-04-24T06:04:06;22.83;;;12.30;;
7017;SDS011;3549;42.162;24.726;2023-04-24T06:06:32;22.03;;;12.77;;
7017;SDS011;3549;42.162;24.726;2023-04-24T06:08:58;24.40;;;13.50;;
7017;SDS011;3549;42.162;24.726;2023-04-24T06:11:23;28.30;;;13.03;;
7017;SDS011;3549;42.162;24.726;2023-04-24T06:13:49;22.23;;;13.33;;
7017;SDS011;3549;42.162;24.726;2023-04-24T06:16:15;27.03;;;12.80;;
7017;SDS011;3549;42.162;24.726;2023-04-24T06:18:40;27.93;;;13.07;;
7017;SDS011;3549;42.162;24.726;2023-04-24T06:21:06;24.60;;;13.80;;
7017;SDS011;3549;42.162;24.726;2023-04-24T06:23:32;21.13;;;13.33;;
7017;SDS011;3549;42.162;24.726;2023-04-24T06:25:58;23.97;;;13.20;;
7017;SDS011;3549;42.162;24.726;2023-04-24T06:28:24;25.93;;;13.13;;
7017;SDS011;3549;42.162;24.726;2023-04-24T06:30:50;19.60;;;12.63;;
7017;SDS011;3549;42.162;24.726;2023-04-24T06:33:20;25.73;;;13.00;;
7017;SDS011;3549;42.162;24.726;2023-04-24T06:35:46;19.37;;;12.00;;
7017;SDS011;3549;42.162;24.726;2023-04-24T06:38:11;21.60;;;11.93;;
7017;SDS011;3549;42.162;24.726;2023-04-24T06:40:37;17.87;;;11.30;;
7017;SDS011;3549;42.162;24.726;2023-04-24T06:43:02;18.37;;;11.97;;
7017;SDS011;3549;42.162;24.726;2023-04-24T06:45:28;21.50;;;12.57;;
7017;SDS011;3549;42.162;24.726;2023-04-24T06:47:54;21.60;;;12.10;;
7017;SDS011;3549;42.162;24.726;2023-04-24T06:50:19;19.50;;;11.67;;
7017;SDS011;3549;42.162;24.726;2023-04-24T06:52:45;20.87;;;11.77;;
7017;SDS011;3549;42.162;24.726;2023-04-24T06:55:10;20.57;;;12.70;;
7017;SDS011;3549;42.162;24.726;2023-04-24T06:57:36;19.60;;;12.57;;
7017;SDS011;3549;42.162;24.726;2023-04-24T07:00:02;20.23;;;11.70;;
7017;SDS011;3549;42.162;24.726;2023-04-24T07:02:30;19.13;;;12.13;;
7017;SDS011;3549;42.162;24.726;2023-04-24T07:04:55;21.67;;;12.00;;
7017;SDS011;3549;42.162;24.726;2023-04-24T07:07:21;18.70;;;11.10;;
7017;SDS011;3549;42.162;24.726;2023-04-24T07:09:48;15.73;;;10.67;;
7017;SDS011;3549;42.162;24.726;2023-04-24T07:12:14;17.20;;;11.27;;
7017;SDS011;3549;42.162;24.726;2023-04-24T07:14:39;19.30;;;11.30;;
7017;SDS011;3549;42.162;24.726;2023-04-24T07:17:05;18.43;;;12.23;;
7017;SDS011;3549;42.162;24.726;2023-04-24T07:19:31;17.43;;;11.07;;
7017;SDS011;3549;42.162;24.726;2023-04-24T07:21:58;19.30;;;11.27;;
7017;SDS011;3549;42.162;24.726;2023-04-24T07:24:24;18.83;;;11.93;;
7017;SDS011;3549;42.162;24.726;2023-04-24T07:26:50;18.13;;;11.60;;
7017;SDS011;3549;42.162;24.726;2023-04-24T07:29:16;18.70;;;12.30;;
7017;SDS011;3549;42.162;24.726;2023-04-24T07:31:42;16.20;;;11.07;;
7017;SDS011;3549;42.162;24.726;2023-04-24T07:34:07;19.13;;;11.03;;
7017;SDS011;3549;42.162;24.726;2023-04-24T07:36:33;20.37;;;10.60;;
7017;SDS011;3549;42.162;24.726;2023-04-24T07:38:58;18.70;;;10.43;;
7017;SDS011;3549;42.162;24.726;2023-04-24T07:41:23;20.70;;;10.90;;
7017;SDS011;3549;42.162;24.726;2023-04-24T07:43:50;18.23;;;10.57;;
7017;SDS011;3549;42.162;24.726;2023-04-24T07:46:15;19.50;;;10.87;;
7017;SDS011;3549;42.162;24.726;2023-04-24T07:48:41;16.07;;;10.13;;
7017;SDS011;3549;42.162;24.726;2023-04-24T07:51:07;19.77;;;10.57;;
7017;SDS011;3549;42.162;24.726;2023-04-24T07:53:35;18.43;;;10.50;;
7017;SDS011;3549;42.162;24.726;2023-04-24T07:56:00;17.67;;;9.80;;
7017;SDS011;3549;42.162;24.726;2023-04-24T07:58:26;15.97;;;9.10;;
7017;SDS011;3549;42.162;24.726;2023-04-24T08:00:54;16.03;;;9.10;;
7017;SDS011;3549;42.162;24.726;2023-04-24T08:03:19;15.13;;;10.10;;
7017;SDS011;3549;42.162;24.726;2023-04-24T08:05:45;16.90;;;9.97;;
7017;SDS011;3549;42.162;24.726;2023-04-24T08:08:11;18.07;;;10.80;;
7017;SDS011;3549;42.162;24.726;2023-04-24T08:10:36;21.53;;;11.33;;
7017;SDS011;3549;42.162;24.726;2023-04-24T08:13:01;20.83;;;10.53;;
7017;SDS011;3549;42.162;24.726;2023-04-24T08:15:27;16.63;;;11.10;;
7017;SDS011;3549;42.162;24.726;2023-04-24T08:17:53;15.40;;;10.43;;
7017;SDS011;3549;42.162;24.726;2023-04-24T08:20:18;17.63;;;10.90;;
7017;SDS011;3549;42.162;24.726;2023-04-24T08:22:44;15.70;;;10.60;;
7017;SDS011;3549;42.162;24.726;2023-04-24T08:25:12;18.47;;;10.20;;
7017;SDS011;3549;42.162;24.726;2023-04-24T08:27:37;18.57;;;11.10;;
7017;SDS011;3549;42.162;24.726;2023-04-24T08:30:04;19.40;;;12.00;;
7017;SDS011;3549;42.162;24.726;2023-04-24T08:32:30;19.60;;;10.80;;
7017;SDS011;3549;42.162;24.726;2023-04-24T08:34:56;16.60;;;11.03;;
7017;SDS011;3549;42.162;24.726;2023-04-24T08:37:22;19.33;;;11.40;;
7017;SDS011;3549;42.162;24.726;2023-04-24T08:39:49;18.00;;;11.90;;
7017;SDS011;3549;42.162;24.726;2023-04-24T08:42:15;17.70;;;11.13;;
7017;SDS011;3549;42.162;24.726;2023-04-24T08:44:41;17.40;;;11.63;;
7017;SDS011;3549;42.162;24.726;2023-04-24T08:47:07;22.50;;;11.43;;
7017;SDS011;3549;42.162;24.726;2023-04-24T08:49:33;20.47;;;11.87;;
7017;SDS011;3549;42.162;24.726;2023-04-24T08:52:01;16.97;;;11.07;;
7017;SDS011;3549;42.162;24.726;2023-04-24T08:54:28;15.87;;;11.23;;
7017;SDS011;3549;42.162;24.726;2023-04-24T08:56:54;17.10;;;11.20;;
7017;SDS011;3549;42.162;24.726;2023-04-24T08:59:26;18.20;;;10.83;;
7017;SDS011;3549;42.162;24.726;2023-04-24T09:01:52;22.63;;;11.87;;
7017;SDS011;3549;42.162;24.726;2023-04-24T09:04:20;19.73;;;11.80;;
7017;SDS011;3549;42.162;24.726;2023-04-24T09:06:48;17.33;;;11.80;;
7017;SDS011;3549;42.162;24.726;2023-04-24T09:09:20;23.97;;;11.47;;
7017;SDS011;3549;42.162;24.726;2023-04-24T09:11:56;20.83;;;12.20;;
7017;SDS011;3549;42.162;24.726;2023-04-24T09:14:22;19.03;;;11.30;;
7017;SDS011;3549;42.162;24.726;2023-04-24T09:16:48;17.70;;;10.87;;
7017;SDS011;3549;42.162;24.726;2023-04-24T09:19:14;16.13;;;10.80;;
7017;SDS011;3549;42.162;24.726;2023-04-24T09:21:40;16.23;;;10.77;;
7017;SDS011;3549;42.162;24.726;2023-04-24T09:24:07;16.60;;;11.77;;
7017;SDS011;3549;42.162;24.726;2023-04-24T09:26:39;15.00;;;11.50;;
7017;SDS011;3549;42.162;24.726;2023-04-24T09:29:05;15.17;;;10.80;;
7017;SDS011;3549;42.162;24.726;2023-04-24T09:31:30;14.57;;;10.40;;
7017;SDS011;3549;42.162;24.726;2023-04-24T09:33:57;17.30;;;10.80;;
7017;SDS011;3549;42.162;24.726;2023-04-24T09:36:28;18.87;;;11.70;;
7017;SDS011;3549;42.162;24.726;2023-04-24T09:38:57;18.30;;;11.90;;
7017;SDS011;3549;42.162;24.726;2023-04-24T09:41:23;16.67;;;10.83;;
7017;SDS011;3549;42.162;24.726;2023-04-24T09:43:49;20.57;;;12.00;;
7017;SDS011;3549;42.162;24.726;2023-04-24T09:46:15;16.10;;;11.20;;
7017;SDS011;3549;42.162;24.726;2023-04-24T09:48:43;15.67;;;11.27;;
7017;SDS011;3549;42.162;24.726;2023-04-24T09:51:09;15.33;;;11.13;;
7017;SDS011;3549;42.162;24.726;2023-04-24T09:53:37;15.37;;;10.90;;
7017;SDS011;3549;42.162;24.726;2023-04-24T09:56:07;16.60;;;11.00;;
7017;SDS011;3549;42.162;24.726;2023-04-24T09:58:37;16.20;;;10.87;;
7017;SDS011;3549;42.162;24.726;2023-04-24T10:01:03;16.77;;;11.70;;
7017;SDS011;3549;42.162;24.726;2023-04-24T10:03:32;17.37;;;10.10;;
7017;SDS011;3549;42.162;24.726;2023-04-24T10:05:59;13.40;;;10.07;;
7017;SDS011;3549;42.162;24.726;2023-04-24T10:08:25;15.67;;;9.87;;
7017;SDS011;3549;42.162;24.726;2023-04-24T10:10:51;14.67;;;9.93;;
7017;SDS011;3549;42.162;24.726;2023-04-24T10:13:17;15.03;;;10.23;;
7017;SDS011;3549;42.162;24.726;2023-04-24T10:15:43;17.60;;;10.30;;
7017;SDS011;3549;42.162;24.726;2023-04-24T10:18:09;19.50;;;11.73;;
7017;SDS011;3549;42.162;24.726;2023-04-24T10:20:36;17.87;;;11.63;;
7017;SDS011;3549;42.162;24.726;2023-04-24T10:23:03;14.77;;;10.83;;
7017;SDS011;3549;42.162;24.726;2023-04-24T10:25:29;16.27;;;11.07;;
7017;SDS011;3549;42.162;24.726;2023-04-24T10:27:56;17.70;;;12.57;;
7017;SDS011;3549;42.162;24.726;2023-04-24T10:30:28;19.50;;;12.13;;
7017;SDS011;3549;42.162;24.726;2023-04-24T10:32:55;20.23;;;12.83;;
7017;SDS011;3549;42.162;24.726;2023-04-24T10:35:21;15.77;;;11.70;;
7017;SDS011;3549;42.162;24.726;2023-04-24T10:37:50;20.37;;;13.30;;
7017;SDS011;3549;42.162;24.726;2023-04-24T10:40:29;20.70;;;13.77;;
7017;SDS011;3549;42.162;24.726;2023-04-24T10:42:57;17.50;;;13.20;;
7017;SDS011;3549;42.162;24.726;2023-04-24T10:45:23;16.10;;;12.50;;
7017;SDS011;3549;42.162;24.726;2023-04-24T10:47:52;18.63;;;12.03;;
7017;SDS011;3549;42.162;24.726;2023-04-24T10:50:28;18.70;;;12.27;;
7017;SDS011;3549;42.162;24.726;2023-04-24T10:53:06;15.17;;;10.90;;
7017;SDS011;3549;42.162;24.726;2023-04-24T10:55:47;14.47;;;11.00;;
7017;SDS011;3549;42.162;24.726;2023-04-24T10:58:15;15.47;;;10.50;;
7017;SDS011;3549;42.162;24.726;2023-04-24T11:00:42;15.17;;;10.57;;
7017;SDS011;3549;42.162;24.726;2023-04-24T11:05:55;14.63;;;9.80;;
7017;SDS011;3549;42.162;24.726;2023-04-24T11:10:47;12.93;;;9.37;;
7017;SDS011;3549;42.162;24.726;2023-04-24T11:13:21;14.37;;;10.43;;
7017;SDS011;3549;42.162;24.726;2023-04-24T11:18:39;13.83;;;9.97;;
7017;SDS011;3549;42.162;24.726;2023-04-24T11:21:11;14.37;;;9.90;;
7017;SDS011;3549;42.162;24.726;2023-04-24T11:23:47;13.73;;;9.20;;
7017;SDS011;3549;42.162;24.726;2023-04-24T11:26:14;14.07;;;9.30;;
7017;SDS011;3549;42.162;24.726;2023-04-24T11:28:47;13.17;;;9.30;;
7017;SDS011;3549;42.162;24.726;2023-04-24T11:34:12;11.27;;;9.20;;
7017;SDS011;3549;42.162;24.726;2023-04-24T11:36:39;13.27;;;9.50;;
7017;SDS011;3549;42.162;24.726;2023-04-24T11:39:05;14.20;;;9.55;;
7017;SDS011;3549;42.162;24.726;2023-04-24T11:41:31;13.15;;;10.02;;
7017;SDS011;3549;42.162;24.726;2023-04-24T11:43:58;13.20;;;9.50;;
7017;SDS011;3549;42.162;24.726;2023-04-24T11:46:28;13.63;;;8.90;;
7017;SDS011;3549;42.162;24.726;2023-04-24T11:48:55;11.73;;;8.73;;
7017;SDS011;3549;42.162;24.726;2023-04-24T11:51:22;9.43;;;8.32;;
7017;SDS011;3549;42.162;24.726;2023-04-24T11:53:48;10.07;;;8.30;;
7017;SDS011;3549;42.162;24.726;2023-04-24T11:56:17;10.00;;;8.10;;
7017;SDS011;3549;42.162;24.726;2023-04-24T11:58:44;10.15;;;7.30;;
7017;SDS011;3549;42.162;24.726;2023-04-24T12:01:09;11.52;;;7.75;;
7017;SDS011;3549;42.162;24.726;2023-04-24T12:03:35;8.00;;;7.13;;
7017;SDS011;3549;42.162;24.726;2023-04-24T12:06:06;8.63;;;7.45;;
7017;SDS011;3549;42.162;24.726;2023-04-24T12:08:33;8.57;;;7.22;;
7017;SDS011;3549;42.162;24.726;2023-04-24T12:11:02;8.35;;;7.47;;
7017;SDS011;3549;42.162;24.726;2023-04-24T12:13:29;9.05;;;7.45;;
7017;SDS011;3549;42.162;24.726;2023-04-24T12:15:56;8.30;;;7.47;;
7017;SDS011;3549;42.162;24.726;2023-04-24T12:18:22;8.88;;;7.07;;
7017;SDS011;3549;42.162;24.726;2023-04-24T12:20:48;8.70;;;7.05;;
7017;SDS011;3549;42.162;24.726;2023-04-24T12:23:14;10.05;;;6.88;;
7017;SDS011;3549;42.162;24.726;2023-04-24T12:25:40;9.98;;;7.68;;
7017;SDS011;3549;42.162;24.726;2023-04-24T12:30:32;9.73;;;7.60;;
7017;SDS011;3549;42.162;24.726;2023-04-24T12:32:59;10.00;;;7.50;;
7017;SDS011;3549;42.162;24.726;2023-04-24T12:35:27;9.00;;;7.13;;
7017;SDS011;3549;42.162;24.726;2023-04-24T12:37:53;10.40;;;7.20;;
7017;SDS011;3549;42.162;24.726;2023-04-24T12:40:20;10.30;;;7.32;;
7017;SDS011;3549;42.162;24.726;2023-04-24T12:42:48;9.73;;;7.40;;
7017;SDS011;3549;42.162;24.726;2023-04-24T12:45:15;8.95;;;7.13;;
7017;SDS011;3549;42.162;24.726;2023-04-24T12:47:42;10.27;;;7.13;;
7017;SDS011;3549;42.162;24.726;2023-04-24T12:50:09;10.77;;;7.40;;
7017;SDS011;3549;42.162;24.726;2023-04-24T12:52:39;8.57;;;7.68;;
7017;SDS011;3549;42.162;24.726;2023-04-24T12:55:05;8.52;;;7.40;;
7017;SDS011;3549;42.162;24.726;2023-04-24T12:57:35;9.77;;;7.45;;
7017;SDS011;3549;42.162;24.726;2023-04-24T13:00:02;11.80;;;7.28;;
7017;SDS011;3549;42.162;24.726;2023-04-24T13:02:29;9.50;;;7.38;;
7017;SDS011;3549;42.162;24.726;2023-04-24T13:04:55;11.00;;;7.03;;
7017;SDS011;3549;42.162;24.726;2023-04-24T13:07:21;11.15;;;7.38;;
7017;SDS011;3549;42.162;24.726;2023-04-24T13:09:48;9.23;;;7.43;;
7017;SDS011;3549;42.162;24.726;2023-04-24T13:12:14;10.73;;;7.35;;
7017;SDS011;3549;42.162;24.726;2023-04-24T13:14:40;8.85;;;7.32;;
7017;SDS011;3549;42.162;24.726;2023-04-24T13:17:05;8.23;;;7.43;;
7017;SDS011;3549;42.162;24.726;2023-04-24T13:19:42;10.63;;;7.53;;
7017;SDS011;3549;42.162;24.726;2023-04-24T13:22:11;8.30;;;6.97;;
7017;SDS011;3549;42.162;24.726;2023-04-24T13:24:38;9.95;;;7.43;;
7017;SDS011;3549;42.162;24.726;2023-04-24T13:27:05;10.48;;;6.95;;
7017;SDS011;3549;42.162;24.726;2023-04-24T13:29:31;10.18;;;7.60;;
7017;SDS011;3549;42.162;24.726;2023-04-24T13:31:56;11.23;;;7.93;;
7017;SDS011;3549;42.162;24.726;2023-04-24T13:34:25;10.98;;;7.90;;
7017;SDS011;3549;42.162;24.726;2023-04-24T13:36:55;10.13;;;7.47;;
7017;SDS011;3549;42.162;24.726;2023-04-24T13:39:22;10.00;;;7.97;;
7017;SDS011;3549;42.162;24.726;2023-04-24T13:41:48;13.55;;;7.63;;
7017;SDS011;3549;42.162;24.726;2023-04-24T13:44:15;9.20;;;7.05;;
7017;SDS011;3549;42.162;24.726;2023-04-24T13:46:42;10.93;;;7.50;;
7017;SDS011;3549;42.162;24.726;2023-04-24T13:49:09;12.98;;;8.02;;
7017;SDS011;3549;42.162;24.726;2023-04-24T13:51:35;12.38;;;7.95;;
7017;SDS011;3549;42.162;24.726;2023-04-24T13:54:00;10.52;;;6.97;;
7017;SDS011;3549;42.162;24.726;2023-04-24T13:56:26;10.15;;;6.72;;
7017;SDS011;3549;42.162;24.726;2023-04-24T13:58:52;7.82;;;6.78;;
7017;SDS011;3549;42.162;24.726;2023-04-24T14:01:19;11.43;;;7.63;;
7017;SDS011;3549;42.162;24.726;2023-04-24T14:03:44;10.90;;;6.80;;
7017;SDS011;3549;42.162;24.726;2023-04-24T14:06:10;9.30;;;6.13;;
7017;SDS011;3549;42.162;24.726;2023-04-24T14:08:35;9.18;;;6.53;;
7017;SDS011;3549;42.162;24.726;2023-04-24T14:11:01;7.47;;;6.32;;
7017;SDS011;3549;42.162;24.726;2023-04-24T14:13:26;9.10;;;6.30;;
7017;SDS011;3549;42.162;24.726;2023-04-24T14:15:52;7.80;;;6.60;;
7017;SDS011;3549;42.162;24.726;2023-04-24T14:18:18;8.23;;;6.88;;
7017;SDS011;3549;42.162;24.726;2023-04-24T14:20:44;8.63;;;6.72;;
7017;SDS011;3549;42.162;24.726;2023-04-24T14:23:10;9.07;;;6.72;;
7017;SDS011;3549;42.162;24.726;2023-04-24T14:25:35;9.52;;;6.75;;
7017;SDS011;3549;42.162;24.726;2023-04-24T14:28:01;10.10;;;7.20;;
7017;SDS011;3549;42.162;24.726;2023-04-24T14:30:26;9.60;;;6.80;;
7017;SDS011;3549;42.162;24.726;2023-04-24T14:32:52;9.70;;;6.82;;
7017;SDS011;3549;42.162;24.726;2023-04-24T14:35:17;11.35;;;7.15;;
7017;SDS011;3549;42.162;24.726;2023-04-24T14:37:43;9.38;;;6.90;;
7017;SDS011;3549;42.162;24.726;2023-04-24T14:40:08;9.68;;;7.88;;
7017;SDS011;3549;42.162;24.726;2023-04-24T14:42:34;10.77;;;7.07;;
7017;SDS011;3549;42.162;24.726;2023-04-24T14:45:00;12.73;;;7.13;;
7017;SDS011;3549;42.162;24.726;2023-04-24T14:47:26;12.88;;;7.47;;